Time;durP1;ratioP1;P1;durP2;ratioP2;P2;SDS_P1;SDS_P2;PMS_P1;PMS_P2;Temp;Humidity;BMP_temperature;BMP_pressure;BME280_temperature;BME280_humidity;BME280_pressure;Samples;Min_cycle;Max_cycle;Signal;HPM_P1;HPM_P2
2022/10/16 00:01:37;;;;;;;1.50;1.40;;;14.00;99.90;;;;;;5028839;28;20187;-80
2022/10/16 00:04:03;;;;;;;1.50;1.40;;;13.90;99.90;;;;;;5028558;28;20583;-80
2022/10/16 00:06:30;;;;;;;2.15;1.50;;;13.90;99.90;;;;;;5028654;28;20183;-79
2022/10/16 00:08:56;;;;;;;2.45;1.40;;;13.70;99.90;;;;;;5029178;28;20679;-79
2022/10/16 00:11:25;;;;;;;1.40;1.30;;;13.70;99.90;;;;;;5027707;28;20191;-80
2022/10/16 00:13:54;;;;;;;1.60;1.50;;;13.70;1.00;;;;;;5028874;28;20221;-79
2022/10/16 00:16:19;;;;;;;1.52;1.40;;;13.60;1.00;;;;;;5026947;28;20190;-79
2022/10/16 00:18:45;;;;;;;1.50;1.40;;;13.60;1.00;;;;;;5029029;28;20211;-79
2022/10/16 00:21:17;;;;;;;2.00;1.42;;;13.50;1.00;;;;;;5029089;28;20186;-79
2022/10/16 00:23:43;;;;;;;2.58;1.50;;;13.50;1.00;;;;;;5027752;28;20203;-79
2022/10/16 00:26:13;;;;;;;1.50;1.40;;;13.50;1.00;;;;;;5028842;28;20183;-77
2022/10/16 00:28:40;;;;;;;2.08;1.40;;;13.40;1.00;;;;;;5028727;28;20249;-79
2022/10/16 00:31:11;;;;;;;1.42;1.33;;;13.40;1.00;;;;;;5027914;28;20209;-79
2022/10/16 00:33:38;;;;;;;1.90;1.65;;;13.40;1.00;;;;;;5028333;28;20210;-80
2022/10/16 00:36:06;;;;;;;1.60;1.40;;;13.40;1.00;;;;;;5026994;28;20191;-79
2022/10/16 00:38:32;;;;;;;1.40;1.30;;;13.40;1.00;;;;;;5028304;28;20584;-80
2022/10/16 00:40:58;;;;;;;1.55;1.35;;;13.40;1.00;;;;;;5028306;28;20186;-80
2022/10/16 00:43:43;;;;;;;1.80;1.70;;;13.40;1.00;;;;;;5028192;28;20229;-78
2022/10/16 00:46:24;;;;;;;2.40;1.70;;;13.30;1.00;;;;;;5028332;28;20175;-79
2022/10/16 00:48:56;;;;;;;1.42;1.33;;;13.30;1.00;;;;;;5028449;28;20249;-79
2022/10/16 00:51:27;;;;;;;2.75;1.50;;;13.20;1.00;;;;;;5026581;28;20768;-79
2022/10/16 00:53:54;;;;;;;2.00;1.60;;;13.20;1.00;;;;;;5028406;28;20913;-79
2022/10/16 00:56:20;;;;;;;1.80;1.70;;;13.20;1.00;;;;;;5023277;28;20197;-79
2022/10/16 00:58:46;;;;;;;2.63;1.60;;;13.10;1.00;;;;;;5026364;28;20585;-78
2022/10/16 01:01:11;;;;;;;2.53;2.03;;;13.10;1.00;;;;;;5027761;28;20179;-78
2022/10/16 01:03:37;;;;;;;1.92;1.80;;;13.10;1.00;;;;;;5026291;28;20209;-79
2022/10/16 01:06:03;;;;;;;2.38;2.17;;;13.00;1.00;;;;;;5027639;28;20170;-79
2022/10/16 01:08:39;;;;;;;2.40;2.20;;;13.00;1.00;;;;;;5027570;28;20171;-79
2022/10/16 01:11:22;;;;;;;1.90;1.80;;;13.00;1.00;;;;;;5026819;28;20221;-78
2022/10/16 01:13:55;;;;;;;3.67;1.90;;;12.90;1.00;;;;;;5027560;28;20263;-80
2022/10/16 01:16:41;;;;;;;2.05;1.95;;;12.90;1.00;;;;;;5027427;28;20173;-79
2022/10/16 01:19:19;;;;;;;2.38;2.28;;;12.80;1.00;;;;;;5026482;28;21120;-79
2022/10/16 01:21:47;;;;;;;2.10;1.90;;;12.90;16.20;;;;;;5028011;28;20167;-78
2022/10/16 01:24:32;;;;;;;2.40;2.20;;;12.90;73.40;;;;;;5027565;28;20229;-79
2022/10/16 01:27:12;;;;;;;1.80;1.70;;;12.90;85.80;;;;;;5027637;28;20536;-79
2022/10/16 01:30:02;;;;;;;2.22;2.00;;;13.00;97.60;;;;;;5028023;28;20229;-77
2022/10/16 01:32:52;;;;;;;1.90;1.80;;;12.90;96.70;;;;;;5025589;28;20256;-78
2022/10/16 01:35:23;;;;;;;2.03;1.67;;;12.90;36.70;;;;;;5027124;28;20186;-78
2022/10/16 01:38:17;;;;;;;1.90;1.70;;;12.90;1.00;;;;;;5028254;28;20199;-79
2022/10/16 01:40:49;;;;;;;1.77;1.67;;;12.90;1.00;;;;;;5019634;28;20198;-79
2022/10/16 01:43:22;;;;;;;2.00;1.80;;;12.80;1.00;;;;;;5028666;28;20199;-78
2022/10/16 01:45:49;;;;;;;1.90;1.80;;;12.80;1.00;;;;;;5027302;28;20171;-78
2022/10/16 01:48:18;;;;;;;1.67;1.58;;;12.80;1.00;;;;;;5028462;28;20317;-77
2022/10/16 01:50:48;;;;;;;1.70;1.60;;;12.80;1.00;;;;;;5028468;28;20308;-78
2022/10/16 01:53:16;;;;;;;1.77;1.67;;;12.80;1.00;;;;;;5029351;28;20277;-78
2022/10/16 01:55:46;;;;;;;2.00;1.80;;;12.80;1.00;;;;;;5029415;28;20194;-78
2022/10/16 01:58:13;;;;;;;2.10;2.00;;;12.80;1.00;;;;;;5027983;28;20217;-79
2022/10/16 02:00:43;;;;;;;1.95;1.85;;;12.80;1.00;;;;;;5027657;28;20245;-78
2022/10/16 02:03:10;;;;;;;1.90;1.80;;;12.90;1.00;;;;;;5028255;28;20269;-79
2022/10/16 02:05:57;;;;;;;2.00;1.90;;;12.90;1.00;;;;;;5030142;28;20673;-79
2022/10/16 02:08:25;;;;;;;1.90;1.80;;;12.90;1.00;;;;;;5029045;28;20236;-79
2022/10/16 02:10:51;;;;;;;2.33;1.88;;;12.90;1.00;;;;;;5030345;28;20202;-79
2022/10/16 02:13:29;;;;;;;1.85;1.75;;;12.80;1.00;;;;;;5030245;28;20273;-79
2022/10/16 02:15:55;;;;;;;2.38;2.03;;;12.90;1.00;;;;;;5030176;28;20240;-79
2022/10/16 02:18:21;;;;;;;1.88;1.77;;;12.90;1.00;;;;;;5030839;28;20210;-79
2022/10/16 02:21:02;;;;;;;1.85;1.50;;;13.00;1.00;;;;;;5030707;28;20291;-78
2022/10/16 02:23:43;;;;;;;1.80;1.70;;;13.00;1.00;;;;;;5028634;28;20261;-79
2022/10/16 02:26:15;;;;;;;2.20;1.80;;;13.00;1.00;;;;;;5028701;28;20179;-78
2022/10/16 02:28:46;;;;;;;1.92;1.75;;;13.00;1.00;;;;;;5030324;28;20199;-78
2022/10/16 02:31:15;;;;;;;1.88;1.67;;;13.10;1.00;;;;;;5029108;28;20277;-79
2022/10/16 02:33:42;;;;;;;1.50;1.40;;;13.00;1.00;;;;;;5028646;28;20712;-78
2022/10/16 02:36:08;;;;;;;2.50;1.73;;;13.10;1.00;;;;;;5029689;28;20190;-79
2022/10/16 02:38:36;;;;;;;2.05;1.80;;;13.30;1.00;;;;;;5029907;28;20663;-79
2022/10/16 02:41:01;;;;;;;1.90;1.80;;;13.40;1.00;;;;;;5028724;28;20179;-78
2022/10/16 02:43:27;;;;;;;2.17;1.55;;;13.50;1.00;;;;;;5024750;28;20629;-78
2022/10/16 02:45:53;;;;;;;3.08;1.70;;;13.60;99.90;;;;;;5028727;28;20245;-78
2022/10/16 02:48:18;;;;;;;2.22;1.60;;;13.70;99.90;;;;;;5029717;28;20570;-78
2022/10/16 02:50:44;;;;;;;1.65;1.50;;;13.70;99.90;;;;;;5030051;28;20194;-79
2022/10/16 02:53:09;;;;;;;1.90;1.50;;;13.80;99.90;;;;;;5028562;28;20194;-79
2022/10/16 02:55:35;;;;;;;2.28;2.05;;;13.80;99.90;;;;;;5029700;28;20586;-79
2022/10/16 02:58:03;;;;;;;2.50;1.70;;;13.90;99.90;;;;;;5028310;28;20257;-78
2022/10/16 03:00:29;;;;;;;1.85;1.60;;;13.90;99.90;;;;;;5029933;28;20179;-80
2022/10/16 03:02:55;;;;;;;1.80;1.70;;;14.00;99.90;;;;;;5028300;28;20205;-79
2022/10/16 03:05:20;;;;;;;2.30;1.70;;;14.00;99.90;;;;;;5029823;28;20183;-79
2022/10/16 03:07:46;;;;;;;1.90;1.60;;;14.00;99.90;;;;;;5029679;28;20187;-78
2022/10/16 03:10:12;;;;;;;1.70;1.60;;;14.00;99.90;;;;;;5031215;28;20182;-79
2022/10/16 03:12:37;;;;;;;1.80;1.70;;;14.00;99.90;;;;;;5030229;28;20597;-79
2022/10/16 03:15:03;;;;;;;3.38;1.60;;;14.00;99.90;;;;;;5030271;28;20250;-79
2022/10/16 03:17:29;;;;;;;2.92;1.42;;;14.00;99.90;;;;;;5027159;28;20222;-79
2022/10/16 03:19:54;;;;;;;2.75;1.90;;;13.90;99.90;;;;;;5027819;28;20206;-79
2022/10/16 03:22:20;;;;;;;2.03;1.35;;;13.90;99.90;;;;;;5029603;28;20179;-78
2022/10/16 03:24:45;;;;;;;2.08;1.50;;;13.70;99.90;;;;;;5030613;28;20200;-79
2022/10/16 03:27:11;;;;;;;1.63;1.45;;;13.70;99.90;;;;;;5029518;28;20187;-79
2022/10/16 03:29:37;;;;;;;2.78;1.75;;;13.60;99.90;;;;;;5028392;28;20237;-80
2022/10/16 03:32:02;;;;;;;1.80;1.40;;;13.50;99.90;;;;;;5028652;28;20266;-79
2022/10/16 03:34:28;;;;;;;3.03;1.67;;;13.30;99.90;;;;;;5030354;28;20203;-79
2022/10/16 03:36:54;;;;;;;1.50;1.40;;;13.20;99.90;;;;;;5029036;28;20179;-79
2022/10/16 03:39:19;;;;;;;2.25;1.27;;;13.20;99.90;;;;;;5029429;28;20198;-79
2022/10/16 03:41:46;;;;;;;1.58;1.48;;;13.10;99.90;;;;;;5028872;28;20258;-79
2022/10/16 03:44:12;;;;;;;2.97;1.75;;;13.00;99.90;;;;;;5027401;28;20230;-79
2022/10/16 03:46:37;;;;;;;1.70;1.60;;;13.00;99.90;;;;;;5029109;28;20213;-79
2022/10/16 03:49:03;;;;;;;1.70;1.60;;;12.90;99.90;;;;;;5029376;28;21155;-79
2022/10/16 03:51:28;;;;;;;2.97;1.70;;;12.80;99.90;;;;;;5030194;28;20183;-80
2022/10/16 03:53:54;;;;;;;2.05;1.58;;;12.80;99.90;;;;;;5028547;28;20590;-79
2022/10/16 03:56:20;;;;;;;3.83;1.90;;;12.70;99.90;;;;;;5029057;28;20183;-79
2022/10/16 03:58:45;;;;;;;1.50;1.40;;;12.70;1.00;;;;;;5027682;28;20210;-80
2022/10/16 04:01:11;;;;;;;2.75;1.92;;;12.70;1.00;;;;;;5030109;28;20198;-78
2022/10/16 04:03:36;;;;;;;2.10;1.88;;;12.70;1.00;;;;;;5023631;28;20203;-79
2022/10/16 04:06:02;;;;;;;5.07;2.42;;;12.60;1.00;;;;;;5029137;28;20265;-79
2022/10/16 04:08:28;;;;;;;2.90;2.47;;;12.60;1.00;;;;;;5028894;28;20197;-79
2022/10/16 04:10:53;;;;;;;3.17;2.70;;;12.50;1.00;;;;;;5030288;28;20329;-79
2022/10/16 04:13:19;;;;;;;5.13;3.58;;;12.40;1.00;;;;;;5026962;28;20206;-79
2022/10/16 04:15:45;;;;;;;3.70;3.15;;;12.30;1.00;;;;;;5029188;28;20191;-78
2022/10/16 04:18:11;;;;;;;3.97;3.50;;;12.30;1.00;;;;;;5029435;28;20237;-79
2022/10/16 04:20:36;;;;;;;4.03;3.08;;;12.10;1.00;;;;;;5027195;28;20215;-79
2022/10/16 04:23:02;;;;;;;4.85;3.72;;;12.40;1.00;;;;;;5029047;28;20193;-78
2022/10/16 04:25:28;;;;;;;4.13;3.72;;;12.10;11.70;;;;;;5030329;28;20298;-79
2022/10/16 04:27:54;;;;;;;3.85;3.30;;;12.00;55.20;;;;;;5029911;28;20628;-78
2022/10/16 04:30:21;;;;;;;4.13;3.15;;;12.40;99.90;;;;;;5029900;28;20210;-78
2022/10/16 04:32:50;;;;;;;3.20;3.00;;;12.00;99.90;;;;;;5030625;28;20179;-78
2022/10/16 04:35:18;;;;;;;2.83;2.63;;;11.90;99.90;;;;;;5029247;28;20286;-79
2022/10/16 04:37:43;;;;;;;3.40;3.10;;;11.80;99.90;;;;;;5030316;28;20276;-80
2022/10/16 04:40:09;;;;;;;3.88;3.30;;;11.90;99.90;;;;;;5029752;28;20186;-79
2022/10/16 04:42:35;;;;;;;3.15;2.95;;;11.90;99.90;;;;;;5029839;28;20187;-78
2022/10/16 04:45:00;;;;;;;3.33;3.05;;;11.90;1.00;;;;;;5029977;28;20649;-79
2022/10/16 04:47:26;;;;;;;4.85;3.65;;;11.80;1.00;;;;;;5030579;28;20309;-79
2022/10/16 04:49:51;;;;;;;4.03;3.63;;;11.90;1.00;;;;;;5029615;28;20186;-78
2022/10/16 04:52:18;;;;;;;6.68;3.42;;;12.00;18.20;;;;;;5028583;28;20243;-79
2022/10/16 04:54:45;;;;;;;4.47;3.35;;;12.00;1.00;;;;;;5029345;28;20205;-79
2022/10/16 04:57:11;;;;;;;3.90;3.60;;;12.00;99.90;;;;;;5028707;28;20273;-79
2022/10/16 04:59:36;;;;;;;7.50;3.30;;;12.00;99.90;;;;;;5028191;28;20580;-78
2022/10/16 05:02:03;;;;;;;3.50;3.20;;;12.00;99.90;;;;;;5030365;28;20183;-80
2022/10/16 05:04:28;;;;;;;3.50;2.92;;;12.00;99.90;;;;;;5031664;28;20638;-79
2022/10/16 05:06:54;;;;;;;4.20;3.80;;;12.10;99.90;;;;;;5030404;28;20183;-79
2022/10/16 05:09:20;;;;;;;4.15;3.78;;;12.10;49.50;;;;;;5030616;28;20198;-79
2022/10/16 05:11:45;;;;;;;3.90;3.60;;;11.90;99.90;;;;;;5031131;28;20954;-79
2022/10/16 05:14:11;;;;;;;3.80;3.50;;;11.90;99.90;;;;;;5029621;28;20599;-79
2022/10/16 05:16:37;;;;;;;3.72;3.40;;;12.00;99.90;;;;;;5029997;28;20214;-79
2022/10/16 05:19:02;;;;;;;4.22;3.88;;;11.90;1.00;;;;;;5030294;28;20213;-79
2022/10/16 05:21:28;;;;;;;3.88;3.58;;;11.90;1.00;;;;;;5028552;28;20179;-79
2022/10/16 05:23:55;;;;;;;3.75;3.40;;;11.90;1.00;;;;;;5028577;28;20213;-79
2022/10/16 05:26:21;;;;;;;3.75;3.45;;;11.90;1.00;;;;;;5029481;28;20207;-79
2022/10/16 05:28:46;;;;;;;4.25;3.83;;;11.90;1.00;;;;;;5028225;28;20213;-79
2022/10/16 05:31:12;;;;;;;5.95;3.90;;;11.90;1.00;;;;;;5030249;28;20210;-79
2022/10/16 05:33:37;;;;;;;4.93;3.72;;;11.90;1.00;;;;;;5019980;28;20208;-79
2022/10/16 05:36:07;;;;;;;4.00;3.65;;;11.90;1.00;;;;;;5029378;28;20191;-79
2022/10/16 05:38:33;;;;;;;4.20;3.90;;;11.90;1.00;;;;;;5028778;28;20203;-80
2022/10/16 05:40:59;;;;;;;4.68;4.28;;;12.00;99.90;;;;;;5030569;28;20183;-80
2022/10/16 05:43:26;;;;;;;5.63;5.10;;;12.00;99.90;;;;;;5032900;28;20256;-79
2022/10/16 05:46:04;;;;;;;5.72;4.68;;;12.10;99.90;;;;;;5033435;28;20236;-79
2022/10/16 05:48:30;;;;;;;5.00;4.60;;;12.00;99.90;;;;;;5032991;28;20194;-79
2022/10/16 05:50:58;;;;;;;5.50;4.90;;;12.10;25.60;;;;;;5032580;28;20298;-79
2022/10/16 05:53:25;;;;;;;4.75;4.35;;;12.10;1.00;;;;;;5032473;28;20194;-79
2022/10/16 05:55:55;;;;;;;4.95;4.50;;;12.10;1.00;;;;;;5031067;28;20187;-79
2022/10/16 05:58:21;;;;;;;4.47;4.07;;;12.10;1.00;;;;;;5031684;28;21208;-79
2022/10/16 06:00:58;;;;;;;4.30;3.88;;;12.10;1.00;;;;;;5030008;28;20525;-80
2022/10/16 06:03:24;;;;;;;4.80;4.32;;;12.10;99.90;;;;;;5033165;28;20197;-80
2022/10/16 06:05:49;;;;;;;4.40;3.90;;;12.20;99.90;;;;;;5032692;28;20548;-78
2022/10/16 06:08:15;;;;;;;4.28;3.88;;;12.10;99.90;;;;;;5031174;28;20179;-78
2022/10/16 06:10:41;;;;;;;5.78;3.67;;;12.10;99.90;;;;;;5034067;28;20191;-79
2022/10/16 06:13:07;;;;;;;5.95;3.60;;;12.10;99.90;;;;;;5032153;28;20260;-79
2022/10/16 06:15:33;;;;;;;4.68;4.20;;;12.10;99.90;;;;;;5032509;28;20202;-79
2022/10/16 06:17:58;;;;;;;4.03;3.63;;;12.10;99.90;;;;;;5030726;28;20577;-78
2022/10/16 06:20:24;;;;;;;4.95;3.50;;;12.10;99.90;;;;;;5030332;28;20186;-79
2022/10/16 06:22:49;;;;;;;4.15;3.75;;;12.10;99.90;;;;;;5031227;28;20175;-80
2022/10/16 06:25:15;;;;;;;4.45;3.63;;;12.10;99.90;;;;;;5028732;28;20187;-78
2022/10/16 06:27:41;;;;;;;4.15;3.75;;;12.10;99.90;;;;;;5029521;28;20187;-78
2022/10/16 06:30:07;;;;;;;5.32;4.82;;;12.20;99.90;;;;;;5030381;28;20191;-79
2022/10/16 06:32:33;;;;;;;7.40;4.60;;;12.30;99.90;;;;;;5029154;28;20538;-79
2022/10/16 06:34:59;;;;;;;4.75;4.30;;;12.30;99.90;;;;;;5029545;28;20290;-79
2022/10/16 06:37:24;;;;;;;5.00;4.60;;;12.40;99.90;;;;;;5029544;28;20187;-79
2022/10/16 06:39:52;;;;;;;4.35;3.95;;;12.40;99.90;;;;;;5027647;28;20183;-78
2022/10/16 06:42:18;;;;;;;5.47;4.20;;;12.40;84.40;;;;;;5029956;28;20541;-79
2022/10/16 06:44:43;;;;;;;4.72;4.20;;;12.50;1.00;;;;;;5029902;28;20193;-79
2022/10/16 06:47:10;;;;;;;4.03;3.70;;;12.50;1.00;;;;;;5028902;28;20274;-79
2022/10/16 06:49:35;;;;;;;4.80;4.05;;;12.50;1.00;;;;;;5031530;28;20262;-80
2022/10/16 06:52:01;;;;;;;3.88;3.58;;;12.60;1.00;;;;;;5028776;28;20293;-80
2022/10/16 06:54:27;;;;;;;4.03;3.72;;;12.60;1.00;;;;;;5029105;28;20213;-82
2022/10/16 06:56:54;;;;;;;4.30;3.85;;;12.70;1.00;;;;;;5025740;28;20179;-82
2022/10/16 06:59:20;;;;;;;3.80;3.50;;;12.80;1.00;;;;;;5016117;28;20210;-82
2022/10/16 07:01:47;;;;;;;3.58;3.28;;;12.80;1.00;;;;;;5020205;28;20190;-81
2022/10/16 07:04:13;;;;;;;3.63;3.33;;;12.80;1.00;;;;;;5026036;28;20285;-81
2022/10/16 07:06:39;;;;;;;3.65;3.30;;;12.70;1.00;;;;;;5032461;28;20214;-81
2022/10/16 07:09:08;;;;;;;4.68;3.10;;;12.70;1.00;;;;;;5029183;28;20191;-81
2022/10/16 07:11:34;;;;;;;3.53;3.20;;;12.60;1.00;;;;;;5026687;28;20187;-81
2022/10/16 07:14:00;;;;;;;3.38;3.08;;;12.50;1.00;;;;;;5027982;28;20753;-81
2022/10/16 07:16:28;;;;;;;3.20;3.00;;;12.50;1.00;;;;;;5025246;28;20219;-81
2022/10/16 07:18:58;;;;;;;3.78;3.47;;;12.50;1.00;;;;;;5025467;28;20207;-81
2022/10/16 07:21:25;;;;;;;3.70;2.95;;;12.60;1.00;;;;;;5026935;28;20190;-81
2022/10/16 07:24:00;;;;;;;3.38;3.08;;;12.60;1.00;;;;;;5025817;28;20199;-81
2022/10/16 07:26:28;;;;;;;2.90;2.70;;;12.60;1.00;;;;;;5025358;28;20184;-81
2022/10/16 07:28:54;;;;;;;3.10;2.90;;;12.50;1.00;;;;;;5025794;28;20226;-81
2022/10/16 07:31:21;;;;;;;3.22;2.90;;;12.60;1.00;;;;;;5020869;28;20206;-79
2022/10/16 07:33:47;;;;;;;2.40;2.20;;;12.60;1.00;;;;;;5026193;28;20231;-80
2022/10/16 07:36:15;;;;;;;2.25;2.10;;;12.80;1.00;;;;;;5026194;28;20187;-78
2022/10/16 07:38:42;;;;;;;2.45;2.25;;;13.00;72.30;;;;;;5026651;28;20245;-79
2022/10/16 07:41:12;;;;;;;1.80;1.70;;;13.20;1.00;;;;;;5027226;28;20190;-80
2022/10/16 07:43:37;;;;;;;2.08;1.70;;;13.50;1.00;;;;;;5028156;28;20202;-81
2022/10/16 07:46:03;;;;;;;4.40;2.30;;;13.70;1.00;;;;;;5024442;28;20191;-78
2022/10/16 07:48:31;;;;;;;3.10;2.20;;;13.90;99.90;;;;;;5022757;28;20655;-80
2022/10/16 07:51:05;;;;;;;1.63;1.40;;;14.30;99.90;;;;;;5024905;28;20256;-80
2022/10/16 07:53:31;;;;;;;1.95;1.50;;;14.40;99.90;;;;;;5023685;28;20202;-79
2022/10/16 07:55:59;;;;;;;2.00;1.65;;;14.50;99.90;;;;;;5022874;28;20277;-79
2022/10/16 07:58:25;;;;;;;1.90;1.05;;;14.60;99.90;;;;;;5022498;28;20718;-80
2022/10/16 08:00:50;;;;;;;1.50;1.27;;;14.70;99.90;;;;;;5021904;28;20175;-79
2022/10/16 08:03:16;;;;;;;1.10;1.00;;;14.90;99.90;;;;;;5021672;28;20281;-80
2022/10/16 08:05:41;;;;;;;1.60;1.20;;;15.00;90.20;;;;;;5023328;28;20190;-80
2022/10/16 08:08:12;;;;;;;2.55;1.15;;;15.10;81.30;;;;;;5022659;28;20241;-80
2022/10/16 08:10:38;;;;;;;1.80;1.13;;;15.20;23.80;;;;;;5023236;28;20186;-80
2022/10/16 08:13:03;;;;;;;0.80;0.80;;;15.30;23.10;;;;;;5022012;28;20195;-80
2022/10/16 08:15:29;;;;;;;1.63;1.08;;;15.30;11.00;;;;;;5023432;28;20206;-80
2022/10/16 08:18:00;;;;;;;1.20;1.10;;;15.40;2.90;;;;;;5023992;28;20210;-79
2022/10/16 08:20:28;;;;;;;1.83;1.05;;;15.60;1.00;;;;;;5023474;28;20183;-81
2022/10/16 08:22:54;;;;;;;1.08;0.80;;;15.70;1.00;;;;;;5023592;28;20423;-80
2022/10/16 08:25:21;;;;;;;0.98;0.90;;;15.90;1.00;;;;;;5023737;28;20182;-80
2022/10/16 08:27:47;;;;;;;1.50;0.90;;;15.90;1.00;;;;;;5023840;28;20229;-80
2022/10/16 08:30:13;;;;;;;2.70;1.10;;;15.70;1.00;;;;;;5022047;28;20921;-80
2022/10/16 08:32:39;;;;;;;1.52;0.80;;;15.50;1.00;;;;;;5021814;28;20222;-80
2022/10/16 08:35:05;;;;;;;0.80;0.80;;;15.40;1.00;;;;;;5023055;28;20198;-80
2022/10/16 08:37:32;;;;;;;0.82;0.77;;;15.50;1.00;;;;;;5022008;28;20324;-79
2022/10/16 08:39:57;;;;;;;0.88;0.70;;;15.70;1.00;;;;;;5009758;28;20183;-79
2022/10/16 08:42:31;;;;;;;1.40;0.80;;;15.90;1.00;;;;;;5023624;28;20232;-81
2022/10/16 08:45:12;;;;;;;0.85;0.70;;;16.00;1.00;;;;;;5023351;28;20344;-81
2022/10/16 08:47:46;;;;;;;2.80;0.90;;;16.10;1.00;;;;;;5023646;28;20183;-79
2022/10/16 08:50:17;;;;;;;1.17;1.08;;;16.00;1.00;;;;;;5022295;28;20676;-80
2022/10/16 08:52:44;;;;;;;2.10;0.70;;;16.10;1.00;;;;;;5019562;28;20191;-80
2022/10/16 08:55:29;;;;;;;0.82;0.80;;;16.40;1.00;;;;;;5023071;28;20624;-80
2022/10/16 08:57:55;;;;;;;1.80;0.80;;;16.60;1.00;;;;;;5023484;28;20207;-80
2022/10/16 09:00:21;;;;;;;1.55;0.80;;;16.50;1.00;;;;;;5023308;28;20388;-81
2022/10/16 09:02:58;;;;;;;2.28;1.10;;;16.50;1.00;;;;;;5017977;28;20678;-80
2022/10/16 09:05:42;;;;;;;0.73;0.73;;;16.40;1.00;;;;;;5023978;28;20198;-80
2022/10/16 09:08:45;;;;;;;1.02;0.75;;;16.40;1.00;;;;;;5023194;28;20218;-79
2022/10/16 09:11:25;;;;;;;1.33;1.23;;;16.40;1.00;;;;;;5023863;28;20561;-80
2022/10/16 09:14:20;;;;;;;4.18;0.80;;;16.30;1.00;;;;;;5024890;28;20252;-79
2022/10/16 09:16:58;;;;;;;2.03;0.90;;;16.30;1.00;;;;;;5029459;28;20293;-79
2022/10/16 09:19:48;;;;;;;1.38;0.90;;;16.20;1.00;;;;;;5028196;28;20206;-79
2022/10/16 09:22:16;;;;;;;0.90;0.90;;;16.10;1.00;;;;;;5028948;28;20241;-79
2022/10/16 09:24:42;;;;;;;1.98;1.00;;;16.10;1.00;;;;;;5028342;28;20235;-79
2022/10/16 09:27:12;;;;;;;1.25;0.98;;;16.10;1.00;;;;;;5027520;28;20206;-79
2022/10/16 09:29:38;;;;;;;1.83;0.80;;;16.10;1.00;;;;;;5029180;28;20549;-79
2022/10/16 09:32:23;;;;;;;1.98;0.70;;;16.10;1.00;;;;;;5029251;28;20191;-79
2022/10/16 09:34:52;;;;;;;0.90;0.88;;;16.10;1.00;;;;;;5028235;28;20206;-79
2022/10/16 09:37:21;;;;;;;1.20;1.08;;;16.00;1.00;;;;;;5022260;28;20233;-79
2022/10/16 09:39:54;;;;;;;2.90;0.80;;;16.00;1.00;;;;;;5025913;28;20383;-79
2022/10/16 09:42:23;;;;;;;1.15;0.70;;;16.10;1.00;;;;;;5026306;28;20187;-79
2022/10/16 09:44:56;;;;;;;1.77;0.70;;;16.20;1.00;;;;;;5024658;28;20572;-79
2022/10/16 09:47:25;;;;;;;2.95;2.72;;;16.10;1.00;;;;;;5026289;28;20179;-78
2022/10/16 09:50:05;;;;;;;2.15;1.17;;;16.10;1.00;;;;;;5028087;28;20181;-78
2022/10/16 09:52:32;;;;;;;0.82;0.82;;;16.10;1.00;;;;;;5028386;28;20233;-79
2022/10/16 09:54:59;;;;;;;2.08;1.10;;;16.00;1.00;;;;;;5026980;28;20222;-80
2022/10/16 09:57:25;;;;;;;2.35;1.10;;;16.00;1.00;;;;;;5025281;28;20194;-79
2022/10/16 09:59:56;;;;;;;0.88;0.80;;;16.00;1.00;;;;;;5028667;28;20178;-79
2022/10/16 10:02:37;;;;;;;1.98;1.10;;;16.10;1.00;;;;;;5028356;28;20186;-79
2022/10/16 10:05:05;;;;;;;1.20;0.82;;;16.10;1.00;;;;;;5026724;28;20273;-79
2022/10/16 10:07:34;;;;;;;1.25;0.75;;;16.10;1.00;;;;;;5029228;28;20179;-80
2022/10/16 10:10:01;;;;;;;1.50;0.85;;;16.10;1.00;;;;;;5029276;28;20236;-79
2022/10/16 10:12:37;;;;;;;1.33;1.00;;;16.10;1.00;;;;;;5031568;28;20191;-80
2022/10/16 10:15:11;;;;;;;3.30;1.10;;;16.20;1.00;;;;;;5029547;28;20240;-81
2022/10/16 10:17:52;;;;;;;1.10;0.85;;;16.30;1.00;;;;;;5028277;28;20262;-81
2022/10/16 10:20:27;;;;;;;0.98;0.60;;;16.40;1.00;;;;;;5027115;28;20759;-79
2022/10/16 10:22:53;;;;;;;1.27;0.68;;;16.50;1.00;;;;;;5026670;28;20205;-79
2022/10/16 10:25:40;;;;;;;0.60;0.60;;;16.60;1.00;;;;;;5027932;28;20171;-79
2022/10/16 10:28:28;;;;;;;2.22;0.70;;;16.70;1.00;;;;;;5026955;28;20190;-79
2022/10/16 10:31:06;;;;;;;1.10;0.65;;;16.80;1.00;;;;;;5028001;28;20663;-79
2022/10/16 10:34:06;;;;;;;1.30;0.80;;;16.90;1.00;;;;;;5026265;28;20229;-79
2022/10/16 10:36:39;;;;;;;3.42;2.33;;;16.90;1.00;;;;;;5026447;28;20183;-80
2022/10/16 10:39:17;;;;;;;2.00;1.40;;;17.00;1.00;;;;;;5027418;28;20262;-79
2022/10/16 10:42:16;;;;;;;8.57;4.72;;;17.10;1.00;;;;;;5027635;28;20213;-80
2022/10/16 10:45:00;;;;;;;5.90;2.30;;;17.20;1.00;;;;;;5027296;28;20583;-79
2022/10/16 10:47:48;;;;;;;5.75;2.80;;;17.40;1.00;;;;;;5027720;28;20205;-78
2022/10/16 10:50:30;;;;;;;1.30;1.00;;;17.30;1.00;;;;;;5026187;28;20207;-79
2022/10/16 10:53:14;;;;;;;0.93;0.82;;;17.40;1.00;;;;;;5026790;28;20207;-80
2022/10/16 10:56:06;;;;;;;1.42;1.13;;;17.60;1.00;;;;;;5025479;28;20182;-82
2022/10/16 10:58:41;;;;;;;3.50;1.70;;;17.70;1.00;;;;;;5025655;28;20690;-79
2022/10/16 11:01:20;;;;;;;6.80;4.60;;;17.80;1.00;;;;;;5026250;28;20677;-80
2022/10/16 11:04:18;;;;;;;4.22;2.80;;;17.80;1.00;;;;;;5027597;28;20279;-79
2022/10/16 11:07:01;;;;;;;1.80;1.60;;;17.70;1.00;;;;;;5028105;28;20175;-79
2022/10/16 11:09:39;;;;;;;3.70;2.03;;;17.60;1.00;;;;;;5027844;28;20183;-79
2022/10/16 11:12:38;;;;;;;4.07;2.20;;;17.60;1.00;;;;;;5025909;28;20197;-79
2022/10/16 11:15:19;;;;;;;2.65;1.20;;;17.70;1.00;;;;;;5027010;28;20230;-82
2022/10/16 11:18:32;;;;;;;1.60;1.10;;;17.80;1.00;;;;;;5025896;28;20207;-79
2022/10/16 11:21:04;;;;;;;3.85;1.30;;;18.00;1.00;;;;;;5010259;28;20281;-79
2022/10/16 11:23:45;;;;;;;1.30;0.50;;;18.10;1.00;;;;;;5025648;28;20199;-81
2022/10/16 11:26:24;;;;;;;2.75;0.80;;;18.30;1.00;;;;;;5026218;28;20175;-81
2022/10/16 11:28:54;;;;;;;1.95;0.88;;;18.40;1.00;;;;;;5026697;28;20186;-80
2022/10/16 11:31:43;;;;;;;1.10;0.40;;;18.50;1.00;;;;;;5025913;28;20662;-80
2022/10/16 11:34:37;;;;;;;0.90;0.60;;;18.80;1.00;;;;;;5015154;28;20652;-80
2022/10/16 11:37:10;;;;;;;1.00;0.40;;;18.80;1.00;;;;;;5026888;28;20258;-80
2022/10/16 11:39:37;;;;;;;2.53;0.60;;;18.80;1.00;;;;;;5024920;28;21059;-79
2022/10/16 11:42:15;;;;;;;1.67;0.60;;;18.80;1.00;;;;;;5026043;28;20614;-81
2022/10/16 11:44:44;;;;;;;0.98;0.55;;;18.60;1.00;;;;;;5028033;28;20226;-81
2022/10/16 11:47:36;;;;;;;0.80;0.50;;;18.50;1.00;;;;;;5027266;28;20654;-80
2022/10/16 11:50:26;;;;;;;3.35;0.93;;;18.50;1.00;;;;;;5041107;28;20201;-80
2022/10/16 11:52:51;;;;;;;1.60;0.50;;;18.40;1.00;;;;;;5024347;28;20179;-80
2022/10/16 11:55:22;;;;;;;2.60;0.75;;;18.40;1.00;;;;;;5021683;28;20732;-80
2022/10/16 11:58:02;;;;;;;0.55;0.35;;;18.30;1.00;;;;;;5025753;28;20237;-79
2022/10/16 12:00:40;;;;;;;0.40;0.40;;;18.30;1.00;;;;;;5025429;28;20666;-80
2022/10/16 12:03:17;;;;;;;2.05;0.65;;;18.20;1.00;;;;;;5026290;28;20175;-80
2022/10/16 12:05:54;;;;;;;2.45;0.60;;;18.20;1.00;;;;;;5026613;28;20254;-80
2022/10/16 12:08:20;;;;;;;2.45;0.50;;;18.00;1.00;;;;;;5026199;28;20233;-79
2022/10/16 12:10:47;;;;;;;1.45;0.50;;;18.40;1.00;;;;;;5026175;28;20647;-79
2022/10/16 12:13:34;;;;;;;1.40;0.60;;;18.10;1.00;;;;;;5025833;28;20237;-79
2022/10/16 12:16:12;;;;;;;0.90;0.40;;;18.10;1.00;;;;;;5025739;28;20460;-80
2022/10/16 12:18:43;;;;;;;0.52;0.40;;;18.20;1.00;;;;;;5023505;28;20285;-80
2022/10/16 12:21:13;;;;;;;1.33;0.50;;;18.20;1.00;;;;;;5019729;28;20183;-81
2022/10/16 12:23:50;;;;;;;1.88;0.40;;;18.40;1.00;;;;;;5024510;28;20700;-79
2022/10/16 12:26:26;;;;;;;1.70;0.43;;;18.40;1.00;;;;;;5024594;28;20684;-80
2022/10/16 12:28:52;;;;;;;1.15;0.57;;;18.30;1.00;;;;;;5022892;28;20628;-80
2022/10/16 12:31:17;;;;;;;1.65;0.60;;;18.40;1.00;;;;;;5022281;28;20292;-81
2022/10/16 12:34:01;;;;;;;1.95;0.50;;;18.30;1.00;;;;;;5022912;28;20214;-79
2022/10/16 12:36:31;;;;;;;3.13;0.50;;;18.30;1.00;;;;;;5022835;28;20433;-80
2022/10/16 12:38:56;;;;;;;2.72;0.80;;;18.30;1.00;;;;;;5023453;28;20667;-79
2022/10/16 12:41:31;;;;;;;0.77;0.50;;;18.40;1.00;;;;;;5023819;28;20193;-79
2022/10/16 12:43:58;;;;;;;1.33;0.50;;;18.40;1.00;;;;;;5024438;28;20316;-80
2022/10/16 12:46:36;;;;;;;1.77;0.47;;;18.40;1.00;;;;;;5024776;28;20179;-80
2022/10/16 12:49:33;;;;;;;1.15;0.70;;;18.20;1.00;;;;;;5025675;28;20182;-81
2022/10/16 12:52:05;;;;;;;0.82;0.50;;;18.30;1.00;;;;;;5024003;28;20789;-81
2022/10/16 12:54:35;;;;;;;1.55;0.63;;;18.60;1.00;;;;;;5024653;28;20884;-80
2022/10/16 12:57:31;;;;;;;1.88;0.50;;;18.60;1.00;;;;;;5023178;28;20566;-80
2022/10/16 13:00:35;;;;;;;3.65;0.50;;;18.50;1.00;;;;;;5024557;28;20888;-79
2022/10/16 13:03:22;;;;;;;0.77;0.70;;;18.60;1.00;;;;;;4956736;28;20188;-79
2022/10/16 13:06:12;;;;;;;1.52;0.70;;;18.60;1.00;;;;;;4974995;28;20258;-81
2022/10/16 13:09:05;;;;;;;1.08;0.60;;;18.60;1.00;;;;;;5008707;28;20273;-79
2022/10/16 13:11:57;;;;;;;2.22;0.60;;;18.40;1.00;;;;;;5025758;28;20206;-79
2022/10/16 13:15:09;;;;;;;0.63;0.40;;;18.40;1.00;;;;;;5025611;28;20301;-78